sensor_id;sensor_type;location;lat;lon;timestamp;P1;durP1;ratioP1;P2;durP2;ratioP2
55465;SDS011;41329;41.594;23.810;2022-10-16T00:01:08;6.53;;;6.03;;
55465;SDS011;41329;41.594;23.810;2022-10-16T00:03:36;6.03;;;5.53;;
55465;SDS011;41329;41.594;23.810;2022-10-16T00:06:02;5.90;;;5.40;;
55465;SDS011;41329;41.594;23.810;2022-10-16T00:08:28;4.63;;;4.30;;
55465;SDS011;41329;41.594;23.810;2022-10-16T00:11:02;4.57;;;4.27;;
55465;SDS011;41329;41.594;23.810;2022-10-16T00:13:33;4.50;;;4.10;;
55465;SDS011;41329;41.594;23.810;2022-10-16T00:16:00;3.90;;;3.60;;
55465;SDS011;41329;41.594;23.810;2022-10-16T00:18:26;3.90;;;3.60;;
55465;SDS011;41329;41.594;23.810;2022-10-16T00:20:53;3.93;;;3.63;;
55465;SDS011;41329;41.594;23.810;2022-10-16T00:23:19;5.13;;;4.77;;
55465;SDS011;41329;41.594;23.810;2022-10-16T00:25:54;4.33;;;4.03;;
55465;SDS011;41329;41.594;23.810;2022-10-16T00:28:24;3.27;;;3.07;;
55465;SDS011;41329;41.594;23.810;2022-10-16T00:30:49;3.70;;;3.50;;
55465;SDS011;41329;41.594;23.810;2022-10-16T00:33:15;4.17;;;3.83;;
55465;SDS011;41329;41.594;23.810;2022-10-16T00:35:41;4.13;;;3.80;;
55465;SDS011;41329;41.594;23.810;2022-10-16T00:38:06;4.13;;;3.83;;
55465;SDS011;41329;41.594;23.810;2022-10-16T00:40:31;6.27;;;5.87;;
55465;SDS011;41329;41.594;23.810;2022-10-16T00:42:57;7.27;;;6.77;;
55465;SDS011;41329;41.594;23.810;2022-10-16T00:45:23;6.37;;;5.83;;
55465;SDS011;41329;41.594;23.810;2022-10-16T00:47:49;6.20;;;5.80;;
55465;SDS011;41329;41.594;23.810;2022-10-16T00:50:32;6.33;;;5.63;;
55465;SDS011;41329;41.594;23.810;2022-10-16T00:53:00;6.23;;;5.83;;
55465;SDS011;41329;41.594;23.810;2022-10-16T00:55:27;6.70;;;6.20;;
55465;SDS011;41329;41.594;23.810;2022-10-16T00:57:55;7.30;;;6.60;;
55465;SDS011;41329;41.594;23.810;2022-10-16T01:00:22;6.53;;;5.93;;
55465;SDS011;41329;41.594;23.810;2022-10-16T01:02:57;6.17;;;5.77;;
55465;SDS011;41329;41.594;23.810;2022-10-16T01:05:30;6.73;;;6.23;;
55465;SDS011;41329;41.594;23.810;2022-10-16T01:10:47;8.27;;;7.67;;
55465;SDS011;41329;41.594;23.810;2022-10-16T01:13:21;8.50;;;7.90;;
55465;SDS011;41329;41.594;23.810;2022-10-16T01:15:58;8.57;;;7.87;;
55465;SDS011;41329;41.594;23.810;2022-10-16T01:21:09;10.90;;;7.30;;
55465;SDS011;41329;41.594;23.810;2022-10-16T01:23:43;7.45;;;6.82;;
55465;SDS011;41329;41.594;23.810;2022-10-16T01:29:41;6.87;;;6.27;;
55465;SDS011;41329;41.594;23.810;2022-10-16T01:32:12;7.67;;;6.10;;
55465;SDS011;41329;41.594;23.810;2022-10-16T01:38:12;6.77;;;6.17;;
55465;SDS011;41329;41.594;23.810;2022-10-16T01:40:45;6.27;;;5.83;;
55465;SDS011;41329;41.594;23.810;2022-10-16T01:43:17;6.30;;;5.87;;
55465;SDS011;41329;41.594;23.810;2022-10-16T01:45:46;6.40;;;6.00;;
55465;SDS011;41329;41.594;23.810;2022-10-16T01:48:13;6.27;;;5.77;;
55465;SDS011;41329;41.594;23.810;2022-10-16T01:50:43;6.40;;;5.90;;
55465;SDS011;41329;41.594;23.810;2022-10-16T01:53:14;6.13;;;5.63;;
55465;SDS011;41329;41.594;23.810;2022-10-16T01:55:43;5.63;;;5.07;;
55465;SDS011;41329;41.594;23.810;2022-10-16T01:58:12;5.50;;;5.10;;
55465;SDS011;41329;41.594;23.810;2022-10-16T02:00:39;4.90;;;4.60;;
55465;SDS011;41329;41.594;23.810;2022-10-16T02:03:08;5.57;;;5.00;;
55465;SDS011;41329;41.594;23.810;2022-10-16T02:05:41;4.73;;;4.33;;
55465;SDS011;41329;41.594;23.810;2022-10-16T02:08:07;5.03;;;4.63;;
55465;SDS011;41329;41.594;23.810;2022-10-16T02:10:35;4.97;;;4.57;;
55465;SDS011;41329;41.594;23.810;2022-10-16T02:15:42;4.30;;;3.90;;
55465;SDS011;41329;41.594;23.810;2022-10-16T02:18:07;4.57;;;4.27;;
55465;SDS011;41329;41.594;23.810;2022-10-16T02:20:44;5.00;;;4.70;;
55465;SDS011;41329;41.594;23.810;2022-10-16T02:25:44;6.60;;;6.10;;
55465;SDS011;41329;41.594;23.810;2022-10-16T02:28:22;6.20;;;5.67;;
55465;SDS011;41329;41.594;23.810;2022-10-16T02:30:54;6.85;;;6.05;;
55465;SDS011;41329;41.594;23.810;2022-10-16T02:33:25;5.57;;;5.17;;
55465;SDS011;41329;41.594;23.810;2022-10-16T02:35:53;6.00;;;5.60;;
55465;SDS011;41329;41.594;23.810;2022-10-16T02:38:19;6.73;;;5.67;;
55465;SDS011;41329;41.594;23.810;2022-10-16T02:40:46;8.53;;;7.83;;
55465;SDS011;41329;41.594;23.810;2022-10-16T02:43:11;8.37;;;7.77;;
55465;SDS011;41329;41.594;23.810;2022-10-16T02:45:38;7.80;;;7.20;;
55465;SDS011;41329;41.594;23.810;2022-10-16T02:48:04;5.73;;;5.23;;
55465;SDS011;41329;41.594;23.810;2022-10-16T02:50:30;6.00;;;5.40;;
55465;SDS011;41329;41.594;23.810;2022-10-16T02:52:55;7.63;;;6.93;;
55465;SDS011;41329;41.594;23.810;2022-10-16T02:55:20;6.93;;;6.43;;
55465;SDS011;41329;41.594;23.810;2022-10-16T02:57:46;9.83;;;8.83;;
55465;SDS011;41329;41.594;23.810;2022-10-16T03:00:12;9.63;;;8.87;;
55465;SDS011;41329;41.594;23.810;2022-10-16T03:02:39;7.73;;;7.13;;
55465;SDS011;41329;41.594;23.810;2022-10-16T03:05:05;7.33;;;6.73;;
55465;SDS011;41329;41.594;23.810;2022-10-16T03:07:31;6.97;;;6.47;;
55465;SDS011;41329;41.594;23.810;2022-10-16T03:09:56;6.93;;;6.40;;
55465;SDS011;41329;41.594;23.810;2022-10-16T03:12:25;6.27;;;5.87;;
55465;SDS011;41329;41.594;23.810;2022-10-16T03:14:51;6.57;;;5.97;;
55465;SDS011;41329;41.594;23.810;2022-10-16T03:17:16;10.13;;;7.17;;
55465;SDS011;41329;41.594;23.810;2022-10-16T03:19:42;6.87;;;6.37;;
55465;SDS011;41329;41.594;23.810;2022-10-16T03:22:07;7.03;;;6.53;;
55465;SDS011;41329;41.594;23.810;2022-10-16T03:24:33;5.80;;;5.40;;
55465;SDS011;41329;41.594;23.810;2022-10-16T03:26:58;7.10;;;5.67;;
55465;SDS011;41329;41.594;23.810;2022-10-16T03:29:24;5.80;;;5.40;;
55465;SDS011;41329;41.594;23.810;2022-10-16T03:31:50;7.20;;;6.60;;
55465;SDS011;41329;41.594;23.810;2022-10-16T03:34:16;7.23;;;6.63;;
55465;SDS011;41329;41.594;23.810;2022-10-16T03:36:41;6.93;;;6.43;;
55465;SDS011;41329;41.594;23.810;2022-10-16T03:39:07;7.03;;;6.47;;
55465;SDS011;41329;41.594;23.810;2022-10-16T03:41:32;7.43;;;6.77;;
55465;SDS011;41329;41.594;23.810;2022-10-16T03:43:58;6.90;;;6.27;;
55465;SDS011;41329;41.594;23.810;2022-10-16T03:46:23;6.93;;;6.37;;
55465;SDS011;41329;41.594;23.810;2022-10-16T03:48:48;7.50;;;6.73;;
55465;SDS011;41329;41.594;23.810;2022-10-16T03:51:14;7.07;;;6.57;;
55465;SDS011;41329;41.594;23.810;2022-10-16T03:53:39;6.23;;;5.73;;
55465;SDS011;41329;41.594;23.810;2022-10-16T03:56:05;5.60;;;5.30;;
55465;SDS011;41329;41.594;23.810;2022-10-16T03:58:31;6.60;;;6.20;;
55465;SDS011;41329;41.594;23.810;2022-10-16T04:00:56;5.63;;;5.20;;
55465;SDS011;41329;41.594;23.810;2022-10-16T04:03:21;6.07;;;5.67;;
55465;SDS011;41329;41.594;23.810;2022-10-16T04:05:48;6.00;;;5.60;;
55465;SDS011;41329;41.594;23.810;2022-10-16T04:08:13;5.97;;;5.57;;
55465;SDS011;41329;41.594;23.810;2022-10-16T04:10:39;6.03;;;5.63;;
55465;SDS011;41329;41.594;23.810;2022-10-16T04:13:04;5.53;;;5.13;;
55465;SDS011;41329;41.594;23.810;2022-10-16T04:15:30;5.83;;;5.37;;
55465;SDS011;41329;41.594;23.810;2022-10-16T04:17:55;5.47;;;5.17;;
55465;SDS011;41329;41.594;23.810;2022-10-16T04:20:21;6.87;;;6.37;;
55465;SDS011;41329;41.594;23.810;2022-10-16T04:22:46;8.17;;;7.57;;
55465;SDS011;41329;41.594;23.810;2022-10-16T04:25:12;12.77;;;11.80;;
55465;SDS011;41329;41.594;23.810;2022-10-16T04:27:38;11.47;;;10.27;;
55465;SDS011;41329;41.594;23.810;2022-10-16T04:30:03;9.87;;;8.97;;
55465;SDS011;41329;41.594;23.810;2022-10-16T04:32:30;12.33;;;11.03;;
55465;SDS011;41329;41.594;23.810;2022-10-16T04:34:55;11.07;;;10.07;;
55465;SDS011;41329;41.594;23.810;2022-10-16T04:37:24;11.07;;;10.07;;
55465;SDS011;41329;41.594;23.810;2022-10-16T04:39:50;11.02;;;10.13;;
55465;SDS011;41329;41.594;23.810;2022-10-16T04:42:16;8.77;;;7.97;;
55465;SDS011;41329;41.594;23.810;2022-10-16T04:44:41;8.47;;;7.83;;
55465;SDS011;41329;41.594;23.810;2022-10-16T04:47:07;7.77;;;6.67;;
55465;SDS011;41329;41.594;23.810;2022-10-16T04:49:33;11.17;;;8.20;;
55465;SDS011;41329;41.594;23.810;2022-10-16T04:51:58;11.17;;;10.07;;
55465;SDS011;41329;41.594;23.810;2022-10-16T04:54:23;16.67;;;15.27;;
55465;SDS011;41329;41.594;23.810;2022-10-16T04:56:49;19.73;;;15.80;;
55465;SDS011;41329;41.594;23.810;2022-10-16T04:59:17;22.10;;;18.77;;
55465;SDS011;41329;41.594;23.810;2022-10-16T05:01:43;22.67;;;18.97;;
55465;SDS011;41329;41.594;23.810;2022-10-16T05:04:09;27.10;;;24.40;;
55465;SDS011;41329;41.594;23.810;2022-10-16T05:06:34;30.80;;;27.60;;
55465;SDS011;41329;41.594;23.810;2022-10-16T05:09:00;29.53;;;26.77;;
55465;SDS011;41329;41.594;23.810;2022-10-16T05:11:29;34.00;;;28.17;;
55465;SDS011;41329;41.594;23.810;2022-10-16T05:13:55;30.13;;;26.90;;
55465;SDS011;41329;41.594;23.810;2022-10-16T05:16:20;26.10;;;23.60;;
55465;SDS011;41329;41.594;23.810;2022-10-16T05:18:45;18.50;;;17.23;;
55465;SDS011;41329;41.594;23.810;2022-10-16T05:21:11;16.93;;;15.60;;
55465;SDS011;41329;41.594;23.810;2022-10-16T05:23:36;15.63;;;14.07;;
55465;SDS011;41329;41.594;23.810;2022-10-16T05:26:02;13.37;;;12.37;;
55465;SDS011;41329;41.594;23.810;2022-10-16T05:28:28;12.77;;;12.00;;
55465;SDS011;41329;41.594;23.810;2022-10-16T05:30:55;11.93;;;11.10;;
55465;SDS011;41329;41.594;23.810;2022-10-16T05:33:21;11.20;;;10.50;;
55465;SDS011;41329;41.594;23.810;2022-10-16T05:35:47;11.00;;;10.37;;
55465;SDS011;41329;41.594;23.810;2022-10-16T05:38:15;10.03;;;9.33;;
55465;SDS011;41329;41.594;23.810;2022-10-16T05:40:50;10.37;;;9.50;;
55465;SDS011;41329;41.594;23.810;2022-10-16T05:43:16;8.53;;;8.03;;
55465;SDS011;41329;41.594;23.810;2022-10-16T05:45:41;8.50;;;8.00;;
55465;SDS011;41329;41.594;23.810;2022-10-16T05:48:07;10.47;;;9.87;;
55465;SDS011;41329;41.594;23.810;2022-10-16T05:50:32;29.03;;;24.27;;
55465;SDS011;41329;41.594;23.810;2022-10-16T05:52:58;31.70;;;27.93;;
55465;SDS011;41329;41.594;23.810;2022-10-16T05:55:23;31.10;;;28.13;;
55465;SDS011;41329;41.594;23.810;2022-10-16T05:57:49;33.13;;;29.90;;
55465;SDS011;41329;41.594;23.810;2022-10-16T06:00:14;32.37;;;29.13;;
55465;SDS011;41329;41.594;23.810;2022-10-16T06:02:40;28.80;;;26.27;;
55465;SDS011;41329;41.594;23.810;2022-10-16T06:05:05;27.97;;;25.20;;
55465;SDS011;41329;41.594;23.810;2022-10-16T06:07:33;26.00;;;23.70;;
55465;SDS011;41329;41.594;23.810;2022-10-16T06:10:00;24.67;;;22.47;;
55465;SDS011;41329;41.594;23.810;2022-10-16T06:12:26;18.33;;;16.93;;
55465;SDS011;41329;41.594;23.810;2022-10-16T06:14:52;17.60;;;16.13;;
55465;SDS011;41329;41.594;23.810;2022-10-16T06:17:17;17.20;;;16.00;;
55465;SDS011;41329;41.594;23.810;2022-10-16T06:19:43;17.83;;;15.87;;
55465;SDS011;41329;41.594;23.810;2022-10-16T06:22:08;16.73;;;15.57;;
55465;SDS011;41329;41.594;23.810;2022-10-16T06:24:34;19.20;;;17.83;;
55465;SDS011;41329;41.594;23.810;2022-10-16T06:26:59;16.07;;;14.80;;
55465;SDS011;41329;41.594;23.810;2022-10-16T06:29:25;14.93;;;13.73;;
55465;SDS011;41329;41.594;23.810;2022-10-16T06:31:50;14.53;;;13.57;;
55465;SDS011;41329;41.594;23.810;2022-10-16T06:34:16;18.87;;;17.40;;
55465;SDS011;41329;41.594;23.810;2022-10-16T06:36:41;578.60;;;354.10;;
55465;SDS011;41329;41.594;23.810;2022-10-16T06:39:08;618.93;;;372.93;;
55465;SDS011;41329;41.594;23.810;2022-10-16T06:41:34;827.57;;;545.87;;
55465;SDS011;41329;41.594;23.810;2022-10-16T06:43:59;43.27;;;38.33;;
55465;SDS011;41329;41.594;23.810;2022-10-16T06:46:25;24.60;;;22.10;;
55465;SDS011;41329;41.594;23.810;2022-10-16T06:48:52;18.80;;;17.40;;
55465;SDS011;41329;41.594;23.810;2022-10-16T06:51:19;19.73;;;17.97;;
55465;SDS011;41329;41.594;23.810;2022-10-16T06:53:50;20.27;;;18.53;;
55465;SDS011;41329;41.594;23.810;2022-10-16T06:56:22;20.77;;;18.57;;
55465;SDS011;41329;41.594;23.810;2022-10-16T07:01:16;28.93;;;24.27;;
55465;SDS011;41329;41.594;23.810;2022-10-16T07:03:43;36.27;;;25.80;;
55465;SDS011;41329;41.594;23.810;2022-10-16T07:06:10;34.93;;;27.07;;
55465;SDS011;41329;41.594;23.810;2022-10-16T07:08:38;42.23;;;33.40;;
55465;SDS011;41329;41.594;23.810;2022-10-16T07:11:06;44.33;;;31.67;;
55465;SDS011;41329;41.594;23.810;2022-10-16T07:13:34;43.33;;;34.10;;
55465;SDS011;41329;41.594;23.810;2022-10-16T07:16:07;57.30;;;36.73;;
55465;SDS011;41329;41.594;23.810;2022-10-16T07:18:38;50.13;;;34.73;;
55465;SDS011;41329;41.594;23.810;2022-10-16T07:21:11;46.78;;;32.47;;
55465;SDS011;41329;41.594;23.810;2022-10-16T07:23:38;42.47;;;29.57;;
55465;SDS011;41329;41.594;23.810;2022-10-16T07:26:04;39.47;;;29.10;;
55465;SDS011;41329;41.594;23.810;2022-10-16T07:28:31;25.43;;;21.67;;
55465;SDS011;41329;41.594;23.810;2022-10-16T07:31:04;24.83;;;21.53;;
55465;SDS011;41329;41.594;23.810;2022-10-16T07:33:31;21.77;;;19.63;;
55465;SDS011;41329;41.594;23.810;2022-10-16T07:35:57;19.90;;;17.73;;
55465;SDS011;41329;41.594;23.810;2022-10-16T07:38:23;19.27;;;17.40;;
55465;SDS011;41329;41.594;23.810;2022-10-16T07:40:55;18.63;;;17.00;;
55465;SDS011;41329;41.594;23.810;2022-10-16T07:43:21;17.33;;;16.00;;
55465;SDS011;41329;41.594;23.810;2022-10-16T07:45:47;17.37;;;16.17;;
55465;SDS011;41329;41.594;23.810;2022-10-16T07:48:14;14.80;;;13.70;;
55465;SDS011;41329;41.594;23.810;2022-10-16T07:50:40;15.47;;;14.27;;
55465;SDS011;41329;41.594;23.810;2022-10-16T07:53:06;13.83;;;12.93;;
55465;SDS011;41329;41.594;23.810;2022-10-16T07:55:31;12.53;;;11.53;;
55465;SDS011;41329;41.594;23.810;2022-10-16T07:57:57;14.33;;;13.23;;
55465;SDS011;41329;41.594;23.810;2022-10-16T08:00:22;11.73;;;10.93;;
55465;SDS011;41329;41.594;23.810;2022-10-16T08:02:48;12.33;;;11.53;;
55465;SDS011;41329;41.594;23.810;2022-10-16T08:05:13;10.90;;;10.20;;
55465;SDS011;41329;41.594;23.810;2022-10-16T08:07:39;10.90;;;10.10;;
55465;SDS011;41329;41.594;23.810;2022-10-16T08:10:04;10.70;;;9.90;;
55465;SDS011;41329;41.594;23.810;2022-10-16T08:12:30;13.27;;;12.47;;
55465;SDS011;41329;41.594;23.810;2022-10-16T08:14:56;24.73;;;22.50;;
55465;SDS011;41329;41.594;23.810;2022-10-16T08:17:21;11.03;;;10.43;;
55465;SDS011;41329;41.594;23.810;2022-10-16T08:19:47;10.30;;;9.70;;
55465;SDS011;41329;41.594;23.810;2022-10-16T08:22:13;8.35;;;7.85;;
55465;SDS011;41329;41.594;23.810;2022-10-16T08:24:39;8.10;;;7.60;;
55465;SDS011;41329;41.594;23.810;2022-10-16T08:27:05;7.57;;;6.87;;
55465;SDS011;41329;41.594;23.810;2022-10-16T08:29:32;11.70;;;10.63;;
55465;SDS011;41329;41.594;23.810;2022-10-16T08:31:57;8.70;;;8.00;;
55465;SDS011;41329;41.594;23.810;2022-10-16T08:34:23;5.97;;;5.47;;
55465;SDS011;41329;41.594;23.810;2022-10-16T08:36:48;6.60;;;6.18;;
55465;SDS011;41329;41.594;23.810;2022-10-16T08:39:15;6.05;;;5.60;;
55465;SDS011;41329;41.594;23.810;2022-10-16T08:46:50;5.30;;;4.85;;
55465;SDS011;41329;41.594;23.810;2022-10-16T08:49:41;4.65;;;4.35;;
55465;SDS011;41329;41.594;23.810;2022-10-16T08:52:18;5.45;;;5.13;;
55465;SDS011;41329;41.594;23.810;2022-10-16T08:54:45;8.02;;;7.40;;
55465;SDS011;41329;41.594;23.810;2022-10-16T08:57:21;6.53;;;6.10;;
55465;SDS011;41329;41.594;23.810;2022-10-16T08:59:48;6.68;;;6.20;;
55465;SDS011;41329;41.594;23.810;2022-10-16T09:04:58;5.50;;;5.00;;
55465;SDS011;41329;41.594;23.810;2022-10-16T09:13:10;4.50;;;4.28;;
55465;SDS011;41329;41.594;23.810;2022-10-16T09:19:00;4.75;;;4.35;;
55465;SDS011;41329;41.594;23.810;2022-10-16T09:21:46;3.85;;;3.65;;
55465;SDS011;41329;41.594;23.810;2022-10-16T09:26:39;4.13;;;3.83;;
55465;SDS011;41329;41.594;23.810;2022-10-16T09:29:05;4.28;;;4.03;;
55465;SDS011;41329;41.594;23.810;2022-10-16T09:31:30;3.85;;;3.60;;
55465;SDS011;41329;41.594;23.810;2022-10-16T09:33:59;4.32;;;3.35;;
55465;SDS011;41329;41.594;23.810;2022-10-16T09:36:31;3.78;;;3.47;;
55465;SDS011;41329;41.594;23.810;2022-10-16T09:39:07;3.13;;;2.90;;
55465;SDS011;41329;41.594;23.810;2022-10-16T09:41:43;3.17;;;2.97;;
55465;SDS011;41329;41.594;23.810;2022-10-16T09:44:29;3.58;;;3.38;;
55465;SDS011;41329;41.594;23.810;2022-10-16T09:47:03;2.90;;;2.80;;
55465;SDS011;41329;41.594;23.810;2022-10-16T09:49:50;3.30;;;3.10;;
55465;SDS011;41329;41.594;23.810;2022-10-16T09:52:21;3.67;;;3.20;;
55465;SDS011;41329;41.594;23.810;2022-10-16T09:54:51;4.30;;;4.10;;
55465;SDS011;41329;41.594;23.810;2022-10-16T09:57:21;3.47;;;3.28;;
55465;SDS011;41329;41.594;23.810;2022-10-16T09:59:52;3.78;;;3.58;;
55465;SDS011;41329;41.594;23.810;2022-10-16T10:02:29;3.10;;;2.90;;
55465;SDS011;41329;41.594;23.810;2022-10-16T10:04:58;4.50;;;4.10;;
55465;SDS011;41329;41.594;23.810;2022-10-16T10:07:28;4.22;;;3.92;;
55465;SDS011;41329;41.594;23.810;2022-10-16T10:09:59;4.20;;;4.00;;
55465;SDS011;41329;41.594;23.810;2022-10-16T10:12:29;3.38;;;3.08;;
55465;SDS011;41329;41.594;23.810;2022-10-16T10:15:05;2.95;;;2.75;;
55465;SDS011;41329;41.594;23.810;2022-10-16T10:17:44;3.85;;;2.90;;
55465;SDS011;41329;41.594;23.810;2022-10-16T10:20:30;3.15;;;2.95;;
55465;SDS011;41329;41.594;23.810;2022-10-16T10:23:00;3.30;;;3.10;;
55465;SDS011;41329;41.594;23.810;2022-10-16T10:28:32;4.70;;;4.30;;
55465;SDS011;41329;41.594;23.810;2022-10-16T10:33:54;2.97;;;2.78;;
55465;SDS011;41329;41.594;23.810;2022-10-16T10:36:35;2.47;;;2.28;;
55465;SDS011;41329;41.594;23.810;2022-10-16T10:39:41;2.53;;;2.40;;
55465;SDS011;41329;41.594;23.810;2022-10-16T10:45:20;2.92;;;2.72;;
55465;SDS011;41329;41.594;23.810;2022-10-16T10:50:37;3.42;;;3.22;;
55465;SDS011;41329;41.594;23.810;2022-10-16T10:58:49;4.72;;;3.33;;
55465;SDS011;41329;41.594;23.810;2022-10-16T11:04:24;3.05;;;2.83;;
55465;SDS011;41329;41.594;23.810;2022-10-16T11:06:59;3.30;;;3.08;;
55465;SDS011;41329;41.594;23.810;2022-10-16T11:12:01;3.65;;;2.53;;
55465;SDS011;41329;41.594;23.810;2022-10-16T11:14:43;3.05;;;2.85;;
55465;SDS011;41329;41.594;23.810;2022-10-16T11:17:18;3.25;;;3.05;;
55465;SDS011;41329;41.594;23.810;2022-10-16T11:25:27;2.85;;;2.47;;
55465;SDS011;41329;41.594;23.810;2022-10-16T11:30:49;3.13;;;2.90;;
55465;SDS011;41329;41.594;23.810;2022-10-16T11:38:29;3.97;;;3.28;;
55465;SDS011;41329;41.594;23.810;2022-10-16T11:41:08;3.15;;;2.92;;
55465;SDS011;41329;41.594;23.810;2022-10-16T11:43:41;3.33;;;3.10;;
55465;SDS011;41329;41.594;23.810;2022-10-16T11:46:13;2.58;;;2.38;;
55465;SDS011;41329;41.594;23.810;2022-10-16T11:48:45;2.65;;;2.45;;
55465;SDS011;41329;41.594;23.810;2022-10-16T11:51:35;2.50;;;2.40;;
55465;SDS011;41329;41.594;23.810;2022-10-16T11:54:08;3.22;;;3.03;;
55465;SDS011;41329;41.594;23.810;2022-10-16T11:57:03;2.92;;;2.72;;
55465;SDS011;41329;41.594;23.810;2022-10-16T11:59:49;2.85;;;2.65;;
55465;SDS011;41329;41.594;23.810;2022-10-16T12:08:17;2.95;;;2.70;;
55465;SDS011;41329;41.594;23.810;2022-10-16T12:10:44;3.42;;;3.22;;
55465;SDS011;41329;41.594;23.810;2022-10-16T12:18:37;3.50;;;3.30;;
55465;SDS011;41329;41.594;23.810;2022-10-16T12:21:04;2.97;;;2.78;;
55465;SDS011;41329;41.594;23.810;2022-10-16T12:23:32;2.50;;;2.30;;
55465;SDS011;41329;41.594;23.810;2022-10-16T12:26:01;2.10;;;1.98;;
55465;SDS011;41329;41.594;23.810;2022-10-16T12:28:28;1.70;;;1.60;;
55465;SDS011;41329;41.594;23.810;2022-10-16T12:30:57;2.10;;;1.90;;
55465;SDS011;41329;41.594;23.810;2022-10-16T12:35:50;1.92;;;1.65;;
55465;SDS011;41329;41.594;23.810;2022-10-16T12:38:58;1.55;;;1.45;;
55465;SDS011;41329;41.594;23.810;2022-10-16T12:41:33;1.50;;;1.40;;
55465;SDS011;41329;41.594;23.810;2022-10-16T12:44:01;1.27;;;1.17;;
55465;SDS011;41329;41.594;23.810;2022-10-16T12:51:53;2.33;;;1.60;;
55465;SDS011;41329;41.594;23.810;2022-10-16T12:54:20;1.45;;;1.38;;
55465;SDS011;41329;41.594;23.810;2022-10-16T12:59:51;1.50;;;1.40;;
55465;SDS011;41329;41.594;23.810;2022-10-16T13:08:00;1.77;;;1.67;;
55465;SDS011;41329;41.594;23.810;2022-10-16T13:29:22;1.92;;;1.83;;
55465;SDS011;41329;41.594;23.810;2022-10-16T13:31:48;1.42;;;1.33;;
55465;SDS011;41329;41.594;23.810;2022-10-16T13:34:18;1.80;;;1.70;;
55465;SDS011;41329;41.594;23.810;2022-10-16T13:36:49;1.70;;;1.60;;
55465;SDS011;41329;41.594;23.810;2022-10-16T13:39:26;1.55;;;1.45;;
55465;SDS011;41329;41.594;23.810;2022-10-16T13:44:35;1.60;;;1.45;;
55465;SDS011;41329;41.594;23.810;2022-10-16T13:47:10;1.95;;;1.85;;
55465;SDS011;41329;41.594;23.810;2022-10-16T13:49:43;1.80;;;1.70;;
55465;SDS011;41329;41.594;23.810;2022-10-16T13:52:19;2.90;;;1.90;;
55465;SDS011;41329;41.594;23.810;2022-10-16T13:54:46;6.75;;;3.47;;
55465;SDS011;41329;41.594;23.810;2022-10-16T13:57:13;2.70;;;2.50;;
55465;SDS011;41329;41.594;23.810;2022-10-16T13:59:39;2.22;;;2.10;;
55465;SDS011;41329;41.594;23.810;2022-10-16T14:05:00;1.98;;;1.88;;
55465;SDS011;41329;41.594;23.810;2022-10-16T14:07:27;1.60;;;1.50;;
55465;SDS011;41329;41.594;23.810;2022-10-16T14:09:56;2.20;;;2.00;;
55465;SDS011;41329;41.594;23.810;2022-10-16T14:12:28;1.67;;;1.58;;
55465;SDS011;41329;41.594;23.810;2022-10-16T14:14:54;1.70;;;1.60;;
55465;SDS011;41329;41.594;23.810;2022-10-16T14:17:23;2.20;;;2.10;;
55465;SDS011;41329;41.594;23.810;2022-10-16T14:19:52;1.90;;;1.80;;
55465;SDS011;41329;41.594;23.810;2022-10-16T14:22:33;3.35;;;1.77;;
55465;SDS011;41329;41.594;23.810;2022-10-16T14:25:02;1.55;;;1.45;;
55465;SDS011;41329;41.594;23.810;2022-10-16T14:30:48;2.42;;;2.33;;
55465;SDS011;41329;41.594;23.810;2022-10-16T14:33:21;2.17;;;2.08;;
55465;SDS011;41329;41.594;23.810;2022-10-16T14:36:19;2.63;;;2.53;;
55465;SDS011;41329;41.594;23.810;2022-10-16T14:38:51;2.83;;;2.63;;
55465;SDS011;41329;41.594;23.810;2022-10-16T14:41:20;2.50;;;2.40;;
55465;SDS011;41329;41.594;23.810;2022-10-16T14:43:50;1.73;;;1.63;;
55465;SDS011;41329;41.594;23.810;2022-10-16T14:46:18;2.00;;;1.90;;
55465;SDS011;41329;41.594;23.810;2022-10-16T14:48:47;1.90;;;1.80;;
55465;SDS011;41329;41.594;23.810;2022-10-16T14:51:19;2.92;;;1.85;;
55465;SDS011;41329;41.594;23.810;2022-10-16T14:53:45;2.20;;;2.10;;
55465;SDS011;41329;41.594;23.810;2022-10-16T14:56:29;2.42;;;2.03;;
55465;SDS011;41329;41.594;23.810;2022-10-16T14:58:59;2.50;;;2.30;;
55465;SDS011;41329;41.594;23.810;2022-10-16T15:01:25;2.78;;;2.58;;
55465;SDS011;41329;41.594;23.810;2022-10-16T15:03:51;2.83;;;2.63;;
55465;SDS011;41329;41.594;23.810;2022-10-16T15:06:19;2.55;;;2.35;;
55465;SDS011;41329;41.594;23.810;2022-10-16T15:08:44;2.38;;;2.17;;
55465;SDS011;41329;41.594;23.810;2022-10-16T15:11:16;1.60;;;1.50;;
55465;SDS011;41329;41.594;23.810;2022-10-16T15:13:44;2.22;;;1.27;;
55465;SDS011;41329;41.594;23.810;2022-10-16T15:16:14;1.70;;;1.60;;
55465;SDS011;41329;41.594;23.810;2022-10-16T15:18:41;3.40;;;1.10;;
55465;SDS011;41329;41.594;23.810;2022-10-16T15:21:07;1.30;;;1.08;;
55465;SDS011;41329;41.594;23.810;2022-10-16T15:23:32;1.55;;;1.25;;
55465;SDS011;41329;41.594;23.810;2022-10-16T15:25:58;1.60;;;1.50;;
55465;SDS011;41329;41.594;23.810;2022-10-16T15:28:24;1.83;;;1.73;;
55465;SDS011;41329;41.594;23.810;2022-10-16T15:30:51;3.22;;;3.03;;
55465;SDS011;41329;41.594;23.810;2022-10-16T15:33:21;6.57;;;6.07;;
55465;SDS011;41329;41.594;23.810;2022-10-16T15:35:50;7.40;;;6.90;;
55465;SDS011;41329;41.594;23.810;2022-10-16T15:38:17;11.93;;;10.73;;
55465;SDS011;41329;41.594;23.810;2022-10-16T15:40:45;15.38;;;14.25;;
55465;SDS011;41329;41.594;23.810;2022-10-16T15:43:11;9.85;;;9.00;;
55465;SDS011;41329;41.594;23.810;2022-10-16T15:45:36;9.00;;;8.15;;
55465;SDS011;41329;41.594;23.810;2022-10-16T15:48:02;7.80;;;7.22;;
55465;SDS011;41329;41.594;23.810;2022-10-16T15:50:30;8.45;;;7.60;;
55465;SDS011;41329;41.594;23.810;2022-10-16T15:52:56;8.40;;;7.72;;
55465;SDS011;41329;41.594;23.810;2022-10-16T15:55:22;9.02;;;8.43;;
55465;SDS011;41329;41.594;23.810;2022-10-16T15:57:48;7.95;;;7.45;;
55465;SDS011;41329;41.594;23.810;2022-10-16T16:00:14;8.40;;;7.78;;
55465;SDS011;41329;41.594;23.810;2022-10-16T16:02:43;8.35;;;7.68;;
55465;SDS011;41329;41.594;23.810;2022-10-16T16:05:14;8.40;;;7.80;;
55465;SDS011;41329;41.594;23.810;2022-10-16T16:07:40;6.95;;;6.47;;
55465;SDS011;41329;41.594;23.810;2022-10-16T16:10:06;6.30;;;5.80;;
55465;SDS011;41329;41.594;23.810;2022-10-16T16:12:34;6.07;;;5.57;;
55465;SDS011;41329;41.594;23.810;2022-10-16T16:15:00;6.70;;;6.13;;
55465;SDS011;41329;41.594;23.810;2022-10-16T16:17:28;4.43;;;4.07;;
55465;SDS011;41329;41.594;23.810;2022-10-16T16:19:55;3.92;;;3.70;;
55465;SDS011;41329;41.594;23.810;2022-10-16T16:22:20;7.38;;;6.88;;
55465;SDS011;41329;41.594;23.810;2022-10-16T16:24:45;8.20;;;7.60;;
55465;SDS011;41329;41.594;23.810;2022-10-16T16:27:11;6.13;;;5.72;;
55465;SDS011;41329;41.594;23.810;2022-10-16T16:29:38;8.35;;;7.75;;
55465;SDS011;41329;41.594;23.810;2022-10-16T16:32:03;15.25;;;14.15;;
55465;SDS011;41329;41.594;23.810;2022-10-16T16:34:29;9.50;;;8.70;;
55465;SDS011;41329;41.594;23.810;2022-10-16T16:36:55;7.00;;;6.50;;
55465;SDS011;41329;41.594;23.810;2022-10-16T16:39:21;4.75;;;4.40;;
55465;SDS011;41329;41.594;23.810;2022-10-16T16:41:47;6.28;;;5.78;;
55465;SDS011;41329;41.594;23.810;2022-10-16T16:44:13;6.63;;;6.13;;
55465;SDS011;41329;41.594;23.810;2022-10-16T16:46:40;21.27;;;19.15;;
55465;SDS011;41329;41.594;23.810;2022-10-16T16:49:08;40.10;;;32.15;;